• Join FlightAware (Why Join?)
  • Login
  • US Flag 
07:57AM EDT


 

Airport Tracker/Info


-or-


 

Live Flight TrackerFlight Track Log ✈ UPS1216 ✈ 01-May-2013 ✈ KRFD - KBWI

Flight Track Log - Related Links

Times and Time Zones

All times are in EDT time to prevent confusion due to time zone crossing. See the UPS1216 flight status page for this flight to view local times or setup timezone preferences in your user account.

Time Position Orientation Groundspeed Altitude Reporting Facility
EDT Latitude Longitude Course Direction KTS MPH feet Rate Location/Type
04:08AM 42.1870 -89.0910 182° South 150 173 1,500  Level FlightAware
04:08AM 42.1760 -89.0870 165° South 162 186 2,500 2,760 Climbing FlightAware
04:08AM 42.1670 -89.0750 135° Southeast 205 236 2,900 2,400 Climbing FlightAware
04:08AM 42.1610 -89.0550 112° Southeast 232 267 3,700 3,060 Climbing FlightAware
04:09AM 42.1620 -89.0090 88° East 256 295 5,200 2,460 Climbing FlightAware
04:09AM 42.1630 -88.9680 88° East 286 329 6,000 2,760 Climbing FlightAware
04:10AM 42.1650 -88.9200 87° East 291 335 7,500 3,480 Climbing FlightAware
04:10AM 42.1690 -88.8690 84° East 296 341 9,200 2,880 Climbing FlightAware
04:11AM 42.1740 -88.7880 85° East 319 367 11,100 2,160 Climbing FlightAware
04:12AM 42.1780 -88.6970 87° East 361 415 12,300 2,280 Climbing FlightAware
04:12AM 42.1840 -88.6020 85° East 372 428 14,200 2,580 Climbing FlightAware
04:13AM 42.1910 -88.4990 85° East 383 441 16,000 2,400 Climbing FlightAware
04:14AM 42.1970 -88.4010 85° East 394 453 17,600 2,280 Climbing FlightAware
04:14AM 42.2030 -88.3020 85° East 403 464 19,100 2,100 Climbing FlightAware
04:15AM 42.2090 -88.1840 86° East 416 479 20,600 1,860 Climbing FlightAware
04:16AM 42.2150 -88.0780 86° East 425 489 21,800 1,800 Climbing FlightAware
04:17AM 42.2100 -87.9160 92° East 437 503 23,600 1,860 Climbing FlightAware
04:17AM 42.1760 -87.8160 115° Southeast 443 510 24,900 1,800 Climbing FlightAware
04:18AM 42.1400 -87.7160 116° Southeast 451 519 26,000 1,620 Climbing FlightAware
04:19AM 42.1000 -87.6020 115° Southeast 458 527 27,200 1,500 Climbing FlightAware
04:19AM 42.0630 -87.4970 115° Southeast 466 536 28,200 1,560 Climbing FlightAware
04:20AM 42.0410 -87.3840 105° East 473 544 29,300 1,680 Climbing FlightAware
04:21AM 42.0270 -87.2500 98° East 479 551 30,600 2,100 Climbing FlightAware
04:22AM 42.0140 -87.1300 98° East 471 542 32,300 2,400 Climbing FlightAware
04:22AM 41.9990 -86.9990 99° East 464 534 34,000 1,860 Climbing FlightAware
04:23AM 41.9870 -86.8860 98° East 463 533 35,000 720 Climbing FlightAware
04:24AM 41.9740 -86.7720 99° East 463 533 35,000  Level FlightAware
04:24AM 41.9600 -86.6480 99° East 468 539 35,000 480 Level FlightAware
04:25AM 41.9460 -86.5300 99° East 468 539 35,700 1,380 Climbing FlightAware
04:26AM 41.9330 -86.4170 99° East 459 528 36,900 960 Climbing FlightAware
04:26AM 41.9210 -86.3100 99° East 452 520 37,000 60 Climbing FlightAware
04:27AM 41.9040 -86.1650 99° East 453 521 37,000  Level FlightAware
04:28AM 41.8910 -86.0530 99° East 457 526 37,000  Level FlightAware
04:29AM 41.8750 -85.9250 99° East 461 531 37,000  Level FlightAware
04:29AM 41.8620 -85.8160 99° East 462 532 37,000  Level FlightAware
04:30AM 41.8470 -85.6960 99° East 462 532 37,000  Level FlightAware
04:31AM 41.8320 -85.5750 99° East 461 531 37,000  Level FlightAware
04:31AM 41.8180 -85.4620 99° East 459 528 37,000  Level FlightAware
04:32AM 41.8050 -85.3550 99° East 456 525 37,000  Level FlightAware
04:33AM 41.7890 -85.2260 99° East 453 521 37,000  Level FlightAware
04:33AM 41.7730 -85.1060 100° East 450 518 37,000  Level FlightAware
04:34AM 41.7580 -84.9850 99° East 448 516 37,000  Level FlightAware
04:35AM 41.7470 -84.9050 100° East 447 514 37,000  Level FlightAware
04:36AM 41.7240 -84.7550 102° East 447 514 37,000  Level FlightAware
04:36AM 41.6910 -84.6540 114° Southeast 448 516 37,000  Level FlightAware
04:37AM 41.6530 -84.5530 117° Southeast 447 514 37,000  Level FlightAware
04:38AM 41.6120 -84.4390 116° Southeast 446 513 37,000  Level FlightAware
04:38AM 41.5750 -84.3390 116° Southeast 445 512 37,000  Level FlightAware
04:39AM 41.5390 -84.2420 116° Southeast 444 511 37,000  Level FlightAware
04:40AM 41.4990 -84.1340 116° Southeast 444 511 37,000  Level FlightAware
04:40AM 41.4610 -84.0320 116° Southeast 444 511 37,000  Level FlightAware
04:41AM 41.4200 -83.9200 116° Southeast 444 511 37,000  Level FlightAware
04:42AM 41.3840 -83.8230 116° Southeast 444 511 37,000  Level FlightAware
04:43AM 41.3470 -83.7230 116° Southeast 445 512 37,000  Level FlightAware
04:43AM 41.3050 -83.6130 117° Southeast 446 513 37,000  Level FlightAware
04:44AM 41.2680 -83.5140 116° Southeast 447 514 37,000  Level FlightAware
04:45AM 41.2310 -83.4170 117° Southeast 447 514 37,000  Level FlightAware
04:45AM 41.1880 -83.3050 117° Southeast 446 513 37,000  Level FlightAware
04:46AM 41.1500 -83.2060 117° Southeast 447 514 37,000  Level FlightAware
04:47AM 41.1100 -83.1040 117° Southeast 447 514 37,000  Level FlightAware
04:47AM 41.0700 -82.9990 117° Southeast 447 514 37,000  Level FlightAware
04:48AM 41.0270 -82.8900 118° Southeast 448 516 37,000  Level FlightAware
04:49AM 40.9920 -82.8000 117° Southeast 448 516 37,000  Level FlightAware
04:50AM 40.9490 -82.6920 118° Southeast 447 514 37,000  Level FlightAware
04:50AM 40.9080 -82.5870 117° Southeast 447 514 37,000  Level FlightAware
04:51AM 40.8680 -82.4860 118° Southeast 449 517 37,000  Level FlightAware
04:52AM 40.8250 -82.3780 118° Southeast 448 516 37,000  Level FlightAware
04:52AM 40.7850 -82.2780 118° Southeast 448 516 37,000  Level FlightAware
04:53AM 40.7480 -82.1850 118° Southeast 449 517 37,000  Level FlightAware
04:54AM 40.7030 -82.0730 118° Southeast 449 517 37,000  Level FlightAware
04:54AM 40.6650 -81.9770 118° Southeast 450 518 37,000  Level FlightAware
04:55AM 40.6200 -81.8640 118° Southeast 452 520 37,000  Level FlightAware
04:56AM 40.5820 -81.7710 118° Southeast 453 521 37,000  Level FlightAware
04:57AM 40.5420 -81.6720 118° Southeast 456 525 37,000  Level FlightAware
04:57AM 40.4970 -81.5600 118° Southeast 459 528 37,000  Level FlightAware
04:58AM 40.4570 -81.4600 118° Southeast 460 529 37,000  Level FlightAware
04:59AM 40.4160 -81.3610 119° Southeast 461 531 37,000  Level FlightAware
04:59AM 40.3700 -81.2490 118° Southeast 462 532 37,000  Level FlightAware
05:00AM 40.3250 -81.1400 118° Southeast 462 532 37,000  Level FlightAware
05:01AM 40.2840 -81.0410 118° Southeast 461 531 37,000  Level FlightAware
05:01AM 40.2480 -80.9410 115° Southeast 461 531 37,000  Level FlightAware
05:02AM 40.2150 -80.8370 113° Southeast 461 531 37,000  Level FlightAware
05:03AM 40.1810 -80.7260 112° Southeast 460 529 37,000  Level FlightAware
05:04AM 40.1480 -80.6180 112° Southeast 461 531 37,000  Level FlightAware
05:04AM 40.1120 -80.5020 112° Southeast 462 532 37,000  Level FlightAware
05:05AM 40.0740 -80.3800 112° Southeast 462 532 37,000  Level FlightAware
05:06AM 40.0230 -80.2180 112° Southeast 462 532 37,000  Level FlightAware
05:07AM 39.9870 -80.1030 112° Southeast 462 532 37,000  Level FlightAware
05:08AM 39.9540 -80.0000 113° Southeast 463 533 37,000  Level FlightAware
05:08AM 39.9210 -79.8940 112° Southeast 464 534 37,000  Level FlightAware
05:09AM 39.8840 -79.7770 112° Southeast 464 534 37,000  Level FlightAware
05:10AM 39.8500 -79.6730 113° Southeast 466 536 37,000  Level FlightAware
05:10AM 39.8140 -79.5600 112° Southeast 466 536 37,000 -120 Level FlightAware
05:11AM 39.7790 -79.4530 113° Southeast 466 536 36,900 -1,140 Descending FlightAware
05:12AM 39.7420 -79.3390 113° Southeast 461 531 35,400 -2,340 Descending FlightAware
05:12AM 39.7080 -79.2340 113° Southeast 459 528 33,600 -2,580 Descending FlightAware
05:13AM 39.6750 -79.1340 113° Southeast 448 516 32,000 -2,340 Descending FlightAware
05:14AM 39.6490 -79.0340 109° East 435 501 30,500 -2,220 Descending FlightAware
05:15AM 39.6250 -78.9210 105° East 424 488 28,900 -2,220 Descending FlightAware
05:15AM 39.6040 -78.8240 106° East 418 481 27,400 -2,280 Descending FlightAware
05:16AM 39.5810 -78.7160 105° East 412 474 25,700 -2,280 Descending FlightAware
05:17AM 39.5600 -78.6190 106° East 407 468 24,200 -2,280 Descending FlightAware
05:17AM 39.5360 -78.5130 106° East 401 461 22,500 -2,220 Descending FlightAware
05:18AM 39.5160 -78.4210 106° East 394 453 21,100 -2,220 Descending FlightAware
05:19AM 39.4960 -78.3320 106° East 386 444 19,600 -2,400 Descending FlightAware
05:19AM 39.4770 -78.2440 106° East 383 441 17,900 -2,400 Descending FlightAware
05:20AM 39.4550 -78.1440 106° East 365 420 16,200 -2,160 Descending FlightAware
05:21AM 39.4340 -78.0510 106° East 349 402 14,700 -1,320 Descending FlightAware
05:22AM 39.4290 -77.9690 94° East 335 386 14,400 -540 Descending FlightAware
05:22AM 39.4310 -77.8890 88° East 330 380 14,000 -660 Descending FlightAware
05:23AM 39.4340 -77.8000 87° East 326 375 13,500 -720 Descending FlightAware
05:24AM 39.4370 -77.7220 87° East 322 371 13,000 -720 Descending FlightAware
05:24AM 39.4390 -77.6350 88° East 320 368 12,500 -720 Descending FlightAware
05:25AM 39.4410 -77.5650 88° East 319 367 12,000 -600 Descending FlightAware
05:26AM 39.4430 -77.4940 88° East 315 362 11,700 -900 Descending FlightAware
05:26AM 39.4450 -77.4150 88° East 296 341 10,800 -780 Descending FlightAware
05:27AM 39.4500 -77.3460 85° East 275 316 10,600 -180 Descending FlightAware
05:28AM 39.4590 -77.2700 81° East 280 322 10,600 -120 Level FlightAware
05:28AM 39.4650 -77.2160 82° East 280 322 10,500 -1,080 Descending FlightAware
05:29AM 39.4590 -77.1410 96° East 276 318 9,400 -1,620 Descending FlightAware
05:29AM 39.4520 -77.1020 103° East 272 313 8,900 -1,380 Descending FlightAware
05:30AM 39.4480 -77.0820 105° East 268 308 8,500 -1,800 Descending FlightAware
05:30AM 39.4360 -77.0400 110° East 257 296 7,700 -1,860 Descending FlightAware
05:31AM 39.4190 -77.0010 119° Southeast 246 283 6,800 -1,920 Descending FlightAware
05:31AM 39.4110 -76.9820 119° Southeast 240 276 6,300 -1,680 Descending FlightAware
05:31AM 39.3990 -76.9510 117° Southeast 224 258 5,700 -1,440 Descending FlightAware
05:32AM 39.3860 -76.9180 117° Southeast 212 244 5,000 -1,440 Descending FlightAware
05:32AM 39.3750 -76.8900 117° Southeast 209 241 4,300 -1,380 Descending FlightAware
05:32AM 39.3720 -76.8830 119° Southeast 208 239 4,200 -1,740 Descending FlightAware
05:33AM 39.3570 -76.8520 122° Southeast 202 232 3,300 -1,800 Descending FlightAware
05:33AM 39.3390 -76.8270 133° Southeast 198 228 2,600 -900 Descending FlightAware
05:34AM 39.3170 -76.8030 140° Southeast 191 220 2,400 -300 Descending FlightAware
05:34AM 39.3010 -76.7880 144° Southeast 156 180 2,300 -300 Descending FlightAware
05:35AM 39.2700 -76.7600 145° Southeast 110 127 2,000 -420 Descending FlightAware
05:36AM 39.2640 -76.7550 147° Southeast 107 123 1,800 -360 Descending FlightAware
05:36AM 39.2450 -76.7370 144° Southeast 109 125 1,600 -420 Descending FlightAware
05:37AM 39.2333 -76.7167 144° Southeast 113 130 1,300 -660 Descending Potomac TRACON
05:38AM 39.2000 -76.7000 159° South 119 137 700 -600 Descending Potomac TRACON
05:40AM 39.1754 -76.6683 150° Southeast  Level Estimated